Details From YBBN - Brisbane Intl
To YBHM - Hamilton I.
Flight Number -
Tags generated
Created
Modified
Stats Distance 486 nm / 901 km
Max Altitude 34,000 ft / 10,363 m
Waypoints 6
Social Downloads 0
Likes 0
Share VATSIM

Download

Looking for another format? Having issues loading an existing format? Contact us
Advertisement - Login to hide

Notes

Basic altitude profile: - Ascent Rate: 2500ft/min - Ascent Speed: 250kts - Cruise Altitude: 35000ft - Cruise Speed: 420kts - Descent Rate: 1500ft/min - Descent Speed: 250kts Options: - Use NATs: yes - Use PACOTS: yes - Use low airways: no - Use high airways: yes

Route

YBBN SMOKA Y177 TNG Y61 POONA YBHM

ID Type Via Altitude Latitude Longitude Leg Dist Tot Dist Heading (true) Name
O YBBN APT - 0 ft / 0 m -27.37571˚ 153.12771˚ - 0 nm - Brisbane Intl
SMOKA FIX - 14,200 ft / 4,328 m -26.87583˚ 152.63222˚ 40 nm 40 nm 318° / 319° -
EAGLE FIX Y177 (AWY-HI) 34,000 ft / 10,363 m -25.74444˚ 151.49167˚ 91 nm 131 nm 318° / 318° -
TNG NDB Y177 (AWY-HI) 34,000 ft / 10,363 m -24.49417˚ 150.57000˚ 90 nm 221 nm 326° / 326° THANGOOL NDB-DME
POONA FIX Y61 (AWY-HI) 18,000 ft / 5,486 m -21.49694˚ 149.28389˚ 193 nm 415 nm 338° / 339° -
O YBHM APT - 0 ft / 0 m -20.35748˚ 148.95164˚ 70 nm 486 nm 345° / 345° Hamilton I.

Altitude Profile

Advertisement - Login to hide

Weather


0- 5 10 15 20 25 30 35+ Temperature / ° C

Clouds and Precipitation
Forecast for 2017-12-14 12:00 UTC. Updated an hour ago

Ground ~20,000 ft ~40,000 ft Winds

YBBN

Details ICAO YBBN (BNE)
Name Brisbane Intl
Region Australia
Timezone Australia/Brisbane (UTC+10.0)
Stats Elevation 12 ft / 4 m (AMSL)
Location -27.375714° 153.127710°
Runways 2
Magnetic Variation 10.985° E

METAR

YBBN 141200Z 02008KT 9999 SCT020 23/19 Q1013 NOSIG

Decode

TAF

TAF YBBN 141059Z 1412/1518 04010KT 9999 FEW020 FM141600 20006KT 9999 FEW020 FM142300 04010KT 9999 FEW035 FM150900 05005KT 9999 SCT025

Decode

Departure Runways

ID Width Length Bearing (true) Bearing (mag) Surface Threshold Offset Overrun Length
01 148 ft / 45 m 11,805 ft / 3,598 m 26.93° 15.95° Asphalt 197 ft / 60 m 0 ft / 0 m
14 98 ft / 30 m 5,787 ft / 1,764 m 145.66° 134.68° Asphalt 197 ft / 60 m 0 ft / 0 m
19 148 ft / 45 m 11,805 ft / 3,598 m 206.92° 195.94° Asphalt 0 ft / 0 m 0 ft / 0 m
32 98 ft / 30 m 5,787 ft / 1,764 m 325.66° 314.68° Asphalt 197 ft / 60 m 0 ft / 0 m

YBHM

Details ICAO YBHM (HTI)
Name Hamilton I.
Region Australia
Timezone Australia/Lindeman (UTC+10.0)
Stats Elevation 14 ft / 4 m (AMSL)
Location -20.357481° 148.951639°
Runways 1
Magnetic Variation 8.158° E

METAR

YBHM 141200Z AUTO 12017KT 9999 // SCT024 BKN029 26/22 Q1011

Decode

TAF

Not found

Destination Runways

ID Width Length Bearing (true) Bearing (mag) Surface Threshold Offset Overrun Length
14 148 ft / 45 m 5,792 ft / 1,765 m 143.04° 134.88° Asphalt 0 ft / 0 m 0 ft / 0 m
32 148 ft / 45 m 5,792 ft / 1,765 m 323.03° 314.87° Asphalt 0 ft / 0 m 0 ft / 0 m

Popular Alternatives